Flight Track Log - Related Links

Times and Time Zones

All times are in EDT time to prevent confusion due to time zone crossing. See the N929SR flight status page for this flight to view local times or setup timezone preferences in your user account.

Time Position Orientation Groundspeed Altitude Reporting Facility
EDT Latitude Longitude Course Direction KTS MPH feet Rate Location/Type
Mon 04:13:15 PM 33.6097 -111.9308 300° West 172 198 41,000  Level Albuquerque Center
Mon 04:14:17 PM 33.6369 -111.9886 300° West 203 234 5,500 -15,484 Descending Albuquerque Center
Mon 04:15:19 PM 33.6978 -111.9650 18° North 243 280 9,000 3,484 Climbing Albuquerque Center
Mon 04:16:21 PM 33.7564 -111.9244 30° Northeast 244 281 12,700 3,145 Climbing Albuquerque Center
Mon 04:17:23 PM 33.8228 -111.8808 29° Northeast 269 310 15,500 2,323 Climbing Albuquerque Center
Mon 04:18:25 PM 33.9058 -111.8253 29° Northeast 343 395 17,500 2,516 Climbing Albuquerque Center
Mon 04:19:27 PM 34.0189 -111.7486 29° Northeast 402 463 20,700 2,952 Climbing Albuquerque Center
Mon 04:20:29 PM 34.1233 -111.6953 23° Northeast 408 470 23,600 2,710 Climbing Albuquerque Center
Mon 04:21:31 PM 34.2261 -111.6597 16° North 412 474 26,300 2,565 Climbing Albuquerque Center
Mon 04:22:33 PM 34.3372 -111.6164 18° North 418 481 28,900 2,177 Climbing Albuquerque Center
Mon 04:23:35 PM 34.4786 -111.5603 18° North 440 506 30,800 1,935 Climbing Albuquerque Center
Mon 04:24:37 PM 34.5872 -111.4739 33° Northeast 478 550 32,900 2,032 Climbing Albuquerque Center
Mon 04:25:39 PM 34.6756 -111.3481 49° Northeast 488 562 35,000 1,935 Climbing Albuquerque Center
Mon 04:26:41 PM 34.7636 -111.2217 50° Northeast 489 563 36,900 1,161 Climbing Albuquerque Center
Mon 04:27:43 PM 34.8542 -111.0928 49° Northeast 497 572 37,400 968 Climbing Albuquerque Center
Mon 04:28:45 PM 34.9450 -110.9619 50° Northeast 504 580 38,900 1,561 Climbing Albuquerque Center
Mon 04:29:46 PM 35.0336 -110.8336 50° Northeast 498 573 40,600 1,024 Climbing Albuquerque Center
Mon 04:30:48 PM 35.1303 -110.6928 50° Northeast 489 563 41,000 194 Climbing Albuquerque Center
Mon 04:31:50 PM 35.2264 -110.5439 52° Northeast 497 572 41,000  Level Albuquerque Center
Mon 04:32:52 PM 35.3061 -110.4175 52° Northeast 493 567 41,000  Level Albuquerque Center
Mon 04:33:54 PM 35.4003 -110.2711 52° Northeast 491 565 41,000  Level Albuquerque Center
Mon 04:34:56 PM 35.4817 -110.1433 52° Northeast 495 570 41,000  Level Albuquerque Center
Mon 04:35:58 PM 35.5778 -109.9936 52° Northeast 499 574 41,000  Level Albuquerque Center
Mon 04:37:00 PM 35.6578 -109.8647 53° Northeast 496 571 41,000  Level Albuquerque Center
Mon 04:38:02 PM 35.7536 -109.7136 52° Northeast 500 575 41,000  Level Albuquerque Center
Mon 04:39:04 PM 35.8369 -109.5831 52° Northeast 504 580 41,000  Level Albuquerque Center
Mon 04:39:35 PM 35.8778 -109.5167 53° Northeast 509 586 41,000  Level Denver Center
Mon 04:40:36 PM 35.9750 -109.3617 52° Northeast 509 586 41,000  Level Denver Center
Mon 04:41:08 PM 36.0172 -109.2939 52° Northeast 511 588 41,000  Level Albuquerque Center
Mon 04:42:10 PM 36.1092 -109.1461 52° Northeast 513 590 41,000  Level Albuquerque Center
Mon 04:42:40 PM 36.1428 -109.0917 53° Northeast 513 590 41,000  Level Denver Center
Mon 04:43:41 PM 36.2422 -108.9328 52° Northeast 513 590 41,000  Level Denver Center
Mon 04:44:43 PM 36.3261 -108.7953 53° Northeast 514 592 41,000  Level Denver Center
Mon 04:45:45 PM 36.4086 -108.6589 53° Northeast 514 592 41,000  Level Denver Center
Mon 04:46:46 PM 36.4761 -108.4781 65° Northeast 518 596 41,000  Level Denver Center
Mon 04:47:48 PM 36.5247 -108.3139 70° East 525 604 41,000  Level Denver Center
Mon 04:48:50 PM 36.5831 -108.1231 69° East 528 608 41,000  Level Denver Center
Mon 04:49:52 PM 36.6333 -107.9567 69° East 534 615 41,000  Level Denver Center
Mon 04:50:53 PM 36.6853 -107.7914 69° East 536 617 41,000  Level Denver Center
Mon 04:51:55 PM 36.7431 -107.5989 69° East 532 612 41,000  Level Denver Center
Mon 04:52:57 PM 36.7936 -107.4322 69° East 535 616 41,000  Level Denver Center
Mon 04:53:59 PM 36.8525 -107.2369 69° East 537 618 41,000  Level Denver Center
Mon 04:55:00 PM 36.9017 -107.0700 70° East 534 615 41,000  Level Denver Center
Mon 04:56:02 PM 36.9583 -106.8761 70° East 533 613 41,000  Level Denver Center
Mon 04:57:04 PM 37.0100 -106.7103 69° East 534 615 41,000  Level Denver Center
Mon 04:58:06 PM 37.0661 -106.5169 70° East 530 610 41,000  Level Denver Center
Mon 04:59:07 PM 37.1144 -106.3506 70° East 528 608 41,000  Level Denver Center
Mon 05:00:09 PM 37.1597 -106.1892 71° East 519 597 41,000  Level Denver Center
Mon 05:01:11 PM 37.2164 -105.9989 69° East 521 600 41,000  Level Denver Center
Mon 05:02:13 PM 37.2650 -105.8189 71° East 526 605 41,000  Level Denver Center
Mon 05:03:14 PM 37.3150 -105.6344 71° East 537 618 41,000  Level Denver Center
Mon 05:04:16 PM 37.3642 -105.4653 70° East 539 620 41,000  Level Denver Center
Mon 05:05:18 PM 37.4203 -105.2683 70° East 536 617 41,000  Level Denver Center
Mon 05:06:19 PM 37.4647 -105.1119 70° East 540 621 41,000  Level Denver Center
Mon 05:07:21 PM 37.5186 -104.9150 71° East 535 616 41,000  Level Denver Center
Mon 05:08:35 PM 37.5775 -104.6953 71° East 520 598 41,000  Level Denver Center
Mon 05:09:37 PM 37.6239 -104.5242 71° East 535 616 41,000  Level Denver Center
Mon 05:10:38 PM 37.6694 -104.3539 71° East 533 613 41,000  Level Denver Center
Mon 05:11:40 PM 37.7219 -104.1597 71° East 520 598 41,000  Level Denver Center
Mon 05:12:42 PM 37.7656 -103.9936 72° East 512 589 41,000  Level Denver Center
Mon 05:13:43 PM 37.8100 -103.8267 71° East 517 595 41,000  Level Denver Center
Mon 05:14:45 PM 37.8606 -103.6322 72° East 518 596 41,000  Level Denver Center
Mon 05:15:46 PM 37.8975 -103.4919 72° East 523 602 41,000  Level Denver Center
Mon 05:16:48 PM 37.9550 -103.2650 72° East 527 606 41,000  Level Denver Center
Mon 05:17:49 PM 37.9997 -103.0922 72° East 536 617 41,000  Level Denver Center
Mon 05:18:51 PM 38.0447 -102.9150 72° East 536 617 41,000  Level Denver Center
Mon 05:19:52 PM 38.0964 -102.7128 72° East 539 620 41,000  Level Denver Center
Mon 05:20:54 PM 38.1403 -102.5386 72° East 540 621 41,000  Level Denver Center
Mon 05:21:56 PM 38.1825 -102.3644 73° East 539 620 41,000  Level Denver Center
Mon 05:22:57 PM 38.2333 -102.1606 72° East 541 623 41,000  Level Denver Center
Mon 05:23:59 PM 38.2758 -101.9850 73° East 542 624 41,000  Level Denver Center
Mon 05:25:00 PM 38.3264 -101.7811 72° East 540 621 41,000  Level Denver Center
Mon 05:26:02 PM 38.3683 -101.6058 73° East 539 620 41,000  Level Denver Center
Mon 05:27:03 PM 38.4094 -101.4311 73° East 536 617 41,000  Level Denver Center
Mon 05:28:05 PM 38.4575 -101.2275 73° East 535 616 41,000  Level Denver Center
Mon 05:29:07 PM 38.4997 -101.0525 73° East 536 617 41,000  Level Denver Center
Mon 05:30:08 PM 38.5478 -100.8492 73° East 536 617 41,000  Level Denver Center
Mon 05:31:10 PM 38.5878 -100.6742 74° East 535 616 41,000  Level Denver Center
Mon 05:32:12 PM 38.6278 -100.4994 74° East 534 615 41,000  Level Denver Center
Mon 05:33:13 PM 38.6744 -100.2944 74° East 536 617 41,000  Level Denver Center
Mon 05:34:15 PM 38.7142 -100.1200 74° East 533 613 41,000  Level Denver Center
Mon 05:35:17 PM 38.7597 -99.9139 74° East 536 617 41,000  Level Denver Center
Mon 05:36:18 PM 38.7997 -99.7378 74° East 537 618 41,000  Level Denver Center
Mon 05:37:20 PM 38.8456 -99.5300 74° East 540 621 41,000  Level Denver Center
Mon 05:38:21 PM 38.8836 -99.3522 75° East 539 620 41,000  Level Denver Center
Mon 05:39:23 PM 38.9231 -99.1753 74° East 539 620 41,000  Level Denver Center
Mon 05:40:25 PM 38.9631 -98.9842 75° East 540 621 41,000  Level Denver Center
Mon 05:40:58 PM 38.9881 -98.8661 75° East 540 621 41,000  Level Kansas City Center
Mon 05:41:59 PM 39.0269 -98.6803 75° East 537 618 41,000  Level Kansas City Center
Mon 05:43:02 PM 39.0681 -98.4936 74° East 539 620 41,000  Level Kansas City Center
Mon 05:44:03 PM 39.1061 -98.3067 75° East 540 621 41,000  Level Kansas City Center
Mon 05:45:07 PM 39.1447 -98.1200 75° East 537 618 41,000  Level Kansas City Center
Mon 05:46:07 PM 39.1836 -97.9317 75° East 540 621 41,000  Level Kansas City Center
Mon 05:47:11 PM 39.2247 -97.7308 75° East 538 619 41,000  Level Kansas City Center
Mon 05:48:11 PM 39.2650 -97.5289 75° East 542 624 41,000  Level Kansas City Center
Mon 05:49:13 PM 39.3017 -97.3417 76° East 537 618 41,000  Level Kansas City Center
Mon 05:50:14 PM 39.3378 -97.1639 75° East 535 616 41,000  Level Kansas City Center
Mon 05:51:17 PM 39.3792 -96.9539 76° East 539 620 41,000  Level Kansas City Center
Mon 05:52:20 PM 39.4142 -96.7733 76° East 540 621 41,000  Level Kansas City Center
Mon 05:53:21 PM 39.4531 -96.5628 76° East 539 620 41,000  Level Kansas City Center
Mon 05:54:22 PM 39.4869 -96.3922 76° East 540 621 41,000  Level Kansas City Center
Mon 05:55:26 PM 39.5211 -96.2017 77° East 542 624 41,000  Level Kansas City Center
Mon 05:56:26 PM 39.5614 -95.9883 76° East 541 623 41,000  Level Kansas City Center
Mon 05:57:27 PM 39.6000 -95.7778 77° East 536 617 41,000  Level Kansas City Center
Mon 05:58:31 PM 39.6325 -95.5972 77° East 533 613 41,000  Level Kansas City Center
Mon 05:59:31 PM 39.6653 -95.4181 77° East 530 610 41,000  Level Kansas City Center
Mon 06:00:35 PM 39.7017 -95.2094 77° East 527 606 41,000  Level Kansas City Center
Mon 06:01:35 PM 39.7333 -95.0325 77° East 524 603 41,000  Level Kansas City Center
Mon 06:02:39 PM 39.7700 -94.8256 77° East 524 603 41,000  Level Kansas City Center
Mon 06:03:40 PM 39.8006 -94.6478 77° East 524 603 41,000  Level Kansas City Center
Mon 06:04:40 PM 39.8303 -94.4706 78° East 524 603 41,000  Level Kansas City Center
Mon 06:05:43 PM 39.8661 -94.2642 77° East 524 603 41,000  Level Kansas City Center
Mon 06:06:44 PM 39.8958 -94.0756 78° East 524 603 41,000  Level Kansas City Center
Mon 06:07:47 PM 39.9250 -93.8906 78° East 523 602 41,000  Level Kansas City Center
Mon 06:08:48 PM 39.9556 -93.7086 78° East 521 600 41,000  Level Kansas City Center
Mon 06:09:51 PM 39.9858 -93.5269 78° East 518 596 41,000  Level Kansas City Center
Mon 06:10:52 PM 40.0208 -93.3092 78° East 517 595 41,000  Level Kansas City Center
Mon 06:11:55 PM 40.0494 -93.1253 78° East 519 597 41,000  Level Kansas City Center
Mon 06:12:55 PM 40.0808 -92.9381 78° East 520 598 41,000  Level Kansas City Center
Mon 06:13:59 PM 40.1111 -92.7333 79° East 518 596 41,000  Level Kansas City Center
Mon 06:15:00 PM 40.1383 -92.5553 79° East 519 597 41,000  Level Kansas City Center
Mon 06:16:03 PM 40.1789 -92.3847 73° East 512 589 41,000 -290 Level Kansas City Center
Mon 06:17:04 PM 40.2169 -92.1969 75° East 514 592 40,400 -1,082 Descending Kansas City Center
Mon 06:18:05 PM 40.2519 -92.0217 75° East 507 583 38,800 -1,742 Descending Kansas City Center
Mon 06:19:08 PM 40.2956 -91.8019 75° East 522 601 36,800 -1,795 Descending Kansas City Center
Mon 06:20:12 PM 40.3333 -91.6158 75° East 533 613 35,000 -1,694 Descending Kansas City Center
Mon 06:21:12 PM 40.3697 -91.4306 75° East 531 611 33,300 -1,624 Descending Kansas City Center
Mon 06:21:37 PM 40.3847 -91.3594 74° East 521 600 32,700 -1,586 Descending Chicago Center
Mon 06:22:39 PM 40.4247 -91.1550 76° East 508 585 31,000 -823 Descending Chicago Center
Mon 06:23:41 PM 40.4603 -90.9703 76° East 523 602 31,000  Level Chicago Center
Mon 06:24:43 PM 40.4956 -90.7825 76° East 531 611 31,000 -677 Level Chicago Center
Mon 06:25:45 PM 40.5314 -90.5969 76° East 526 605 29,600 -1,548 Descending Chicago Center
Mon 06:26:47 PM 40.5658 -90.4100 76° East 527 606 27,800 -1,839 Descending Chicago Center
Mon 06:27:49 PM 40.6044 -90.2022 76° East 513 590 25,800 -1,790 Descending Chicago Center
Mon 06:28:51 PM 40.6378 -90.0247 76° East 503 579 24,100 -871 Descending Chicago Center
Mon 06:29:53 PM 40.6250 -89.8506 95° East 483 556 24,000 -49 Descending Chicago Center
Mon 06:30:54 PM 40.6283 -89.6711 89° East 488 562 24,000 -1,610 Level Chicago Center
Mon 06:31:56 PM 40.6658 -89.5081 73° East 489 563 20,700 -3,774 Descending Chicago Center
Mon 06:32:58 PM 40.7556 -89.3614 51° Northeast 438 504 16,200 -3,048 Descending Chicago Center
Mon 06:34:00 PM 40.8186 -89.2436 55° Northeast 407 468 14,400 -1,935 Descending Chicago Center
Mon 06:35:02 PM 40.8856 -89.1419 49° Northeast 384 442 12,200 -1,645 Descending Chicago Center
Mon 06:36:04 PM 40.9611 -89.0517 42° Northeast 373 429 11,000 -1,016 Descending Chicago Center
Mon 06:37:06 PM 41.0328 -88.9622 43° Northeast 364 419 10,100 -484 Descending Chicago Center
Mon 06:38:08 PM 41.1208 -88.8519 43° Northeast 363 418 10,000 -48 Descending Chicago Center
Mon 06:39:10 PM 41.1969 -88.7592 43° Northeast 367 422 10,000 -387 Level Chicago Center
Mon 06:40:12 PM 41.2631 -88.6742 44° Northeast 342 394 9,200 -1,065 Descending Chicago Center
Mon 06:41:14 PM 41.3278 -88.5947 43° Northeast 322 371 7,800 -1,306 Descending Chicago Center
Mon 06:42:16 PM 41.3908 -88.5153 43° Northeast 313 360 6,500 -927 Descending Chicago Center
Mon 06:43:17 PM 41.4508 -88.4386 44° Northeast 302 348 5,900 -634 Descending Chicago Center
Mon 06:44:19 PM 41.4942 -88.3506 57° Northeast 289 333 5,200 -484 Descending Chicago Center
Mon 06:45:21 PM 41.5236 -88.2336 71° East 278 320 4,900 -97 Descending Chicago Center
Mon 06:46:23 PM 41.5469 -88.1331 73° East 278 320 5,000 48 Climbing Chicago Center
Mon 06:47:25 PM 41.5575 -88.0253 83° East 287 330 5,000  Level Chicago Center
Mon 06:48:27 PM 41.5675 -87.9192 83° East 286 329 5,000 -145 Level Chicago Center
Mon 06:49:29 PM 41.5778 -87.8217 82° East 272 313 4,700 -532 Descending Chicago Center
Mon 06:50:31 PM 41.5844 -87.7350 84° East 247 284 3,900 -1,016 Descending Chicago Center
Mon 06:51:33 PM 41.5886 -87.6492 86° East 238 274 2,600 -732 Descending Chicago Center
Mon 06:52:34 PM 41.6411 -87.5886 41° Northeast 224 258 2,400 -48 Descending Chicago Center
Mon 06:53:37 PM 41.7000 -87.6333 330° Northwest 201 231 2,500 -98 Climbing Chicago TRACON
Mon 06:54:37 PM 41.7333 -87.6667 323° Northwest 167 192 2,200 -545 Descending Chicago TRACON
Mon 06:55:38 PM 41.7500 -87.7167 294° West 164 189 1,400 -787 Descending Chicago TRACON

Login

Don't have an account? Register now (free) for customized features, flight alerts, and more!